createdAt,value
2022-10-30T00:04:22.906Z,101439.47
2022-10-30T00:11:24.460Z,101424.38
2022-10-30T00:18:26.066Z,101425.25
2022-10-30T00:25:27.627Z,101417.41
2022-10-30T00:32:29.246Z,101417.13
2022-10-30T00:39:30.933Z,101414.72
2022-10-30T00:46:37.171Z,101409.50
2022-10-30T00:53:38.988Z,101399.28
2022-10-30T01:00:40.803Z,101410.06
2022-10-30T01:07:42.374Z,101391.91
2022-10-30T01:14:54.263Z,101389.28
2022-10-30T01:22:13.163Z,101378.41
2022-10-30T01:29:20.106Z,101369.94
2022-10-30T01:36:42.806Z,101376.34
2022-10-30T01:43:44.930Z,101375.91
2022-10-30T01:51:03.229Z,101364.38
2022-10-30T01:58:31.653Z,101352.75
2022-10-30T02:05:47.529Z,101340.34
2022-10-30T02:12:49.341Z,101342.31
2022-10-30T02:19:50.977Z,101336.13
2022-10-30T02:26:52.592Z,101345.59
2022-10-30T02:33:54.189Z,101347.63
2022-10-30T02:40:57.912Z,101334.47
2022-10-30T02:48:00.970Z,101327.75
2022-10-30T02:55:03.656Z,101325.25
2022-10-30T03:02:05.443Z,101322.84
2022-10-30T03:09:07.165Z,101333.16
2022-10-30T03:16:10.948Z,101334.97
2022-10-30T03:23:12.524Z,101341.97
2022-10-30T03:30:14.115Z,101332.59
2022-10-30T03:37:16.409Z,101331.59
2022-10-30T03:44:19.285Z,101327.78
2022-10-30T03:51:21.005Z,101319.00
2022-10-30T03:58:22.782Z,101300.41
2022-10-30T04:05:33.639Z,101309.97
2022-10-30T04:12:37.738Z,101297.25
2022-10-30T04:19:39.795Z,101314.66
2022-10-30T04:26:42.406Z,101318.75
2022-10-30T04:33:44.155Z,101328.69
2022-10-30T04:40:45.889Z,101332.25
2022-10-30T04:47:49.045Z,101331.41
2022-10-30T04:54:51.421Z,101323.00
2022-10-30T05:01:53.696Z,101321.91
2022-10-30T05:08:56.134Z,101302.81
2022-10-30T05:16:10.275Z,101318.75
2022-10-30T05:23:11.925Z,101312.13
2022-10-30T05:30:13.598Z,101299.88
2022-10-30T05:37:15.915Z,101285.41
2022-10-30T05:44:29.154Z,101275.63
2022-10-30T05:51:39.761Z,101305.06
2022-10-30T05:58:44.732Z,101286.69
2022-10-30T06:05:46.638Z,101282.66
2022-10-30T06:12:58.979Z,101273.63
2022-10-30T06:20:15.241Z,101294.59
2022-10-30T06:27:55.515Z,101270.81
2022-10-30T06:34:57.378Z,101253.84
2022-10-30T06:41:59.526Z,101280.00
2022-10-30T06:49:19.026Z,101272.31
2022-10-30T06:56:21.347Z,101278.88
2022-10-30T07:03:39.530Z,101286.16
2022-10-30T07:10:41.135Z,101317.47
2022-10-30T07:18:17.969Z,101318.78
2022-10-30T07:25:20.727Z,101318.91
2022-10-30T07:32:30.279Z,101328.56
2022-10-30T07:40:12.938Z,101343.19
2022-10-30T07:47:33.375Z,101330.09
2022-10-30T07:54:47.682Z,101333.09
2022-10-30T08:02:27.520Z,101329.50
2022-10-30T08:09:58.623Z,101333.31
2022-10-30T08:17:00.508Z,101330.13
2022-10-30T08:24:03.028Z,101328.56
2022-10-30T08:31:07.767Z,101325.09
2022-10-30T08:38:35.841Z,101338.72
2022-10-30T08:45:57.772Z,101347.50
2022-10-30T08:53:03.993Z,101338.97
2022-10-30T09:00:06.833Z,101338.81
2022-10-30T09:07:34.568Z,101332.31
2022-10-30T09:14:54.611Z,101331.53
2022-10-30T09:21:57.625Z,101322.28
2022-10-30T09:28:59.394Z,101319.66
2022-10-30T09:36:24.168Z,101314.19
2022-10-30T09:43:48.231Z,101315.94
2022-10-30T09:50:59.401Z,101303.25
2022-10-30T09:58:18.478Z,101307.25
2022-10-30T10:05:59.143Z,101298.31
2022-10-30T10:13:38.375Z,101319.28
2022-10-30T10:20:43.750Z,101309.56
2022-10-30T10:28:23.874Z,101309.19
2022-10-30T10:35:55.812Z,101307.41
2022-10-30T10:43:07.148Z,101319.25
2022-10-30T10:50:36.636Z,101313.50
2022-10-30T10:57:38.423Z,101290.81
2022-10-30T11:04:41.374Z,101285.63
2022-10-30T11:11:46.657Z,101282.88
2022-10-30T11:18:48.609Z,101288.19
2022-10-30T11:25:50.175Z,101282.72
2022-10-30T11:32:53.307Z,101280.13
2022-10-30T11:40:13.224Z,101282.00
2022-10-30T11:47:15.626Z,101298.00
2022-10-30T11:54:19.394Z,101286.16
2022-10-30T12:01:25.342Z,101282.72
2022-10-30T12:08:26.977Z,101273.06
2022-10-30T12:15:28.562Z,101279.97
2022-10-30T12:22:31.448Z,101275.22
2022-10-30T12:30:11.834Z,101292.69
2022-10-30T12:37:21.207Z,101292.09
2022-10-30T12:44:27.247Z,101277.41
2022-10-30T12:51:47.772Z,101272.66
2022-10-30T12:59:25.224Z,101274.38
2022-10-30T13:06:28.667Z,101268.88
2022-10-30T13:13:33.848Z,101264.84
2022-10-30T13:20:35.458Z,101266.44
2022-10-30T13:27:41.225Z,101260.22
2022-10-30T13:34:45.892Z,101261.56
2022-10-30T13:42:10.357Z,101266.88
2022-10-30T13:49:22.519Z,101266.00
2022-10-30T13:56:24.110Z,101264.72
2022-10-30T14:03:45.713Z,101265.72
2022-10-30T14:10:54.685Z,101264.41
2022-10-30T14:18:11.345Z,101266.72
2022-10-30T14:25:13.640Z,101271.31
2022-10-30T14:32:15.132Z,101278.56
2022-10-30T14:39:16.758Z,101279.09
2022-10-30T14:46:30.022Z,101272.19
2022-10-30T14:53:53.204Z,101271.53
2022-10-30T15:01:21.007Z,101282.06
2022-10-30T15:08:28.255Z,101277.59
2022-10-30T15:15:29.821Z,101276.06
2022-10-30T15:22:31.445Z,101271.16
2022-10-30T15:29:35.513Z,101270.41
2022-10-30T15:36:41.782Z,101285.69
2022-10-30T15:43:43.780Z,101274.38
2022-10-30T15:50:45.976Z,101280.16
2022-10-30T15:58:13.298Z,101284.94
2022-10-30T16:05:22.385Z,101285.13
2022-10-30T16:12:25.859Z,101279.09
2022-10-30T16:19:29.412Z,101284.84
2022-10-30T16:26:37.642Z,101277.94
2022-10-30T16:33:39.243Z,101279.72
2022-10-30T16:40:40.831Z,101276.84
2022-10-30T16:47:51.996Z,101285.94
2022-10-30T16:55:00.318Z,101289.63
2022-10-30T17:02:06.053Z,101283.59
2022-10-30T17:09:30.159Z,101288.94
2022-10-30T17:16:35.876Z,101300.19
2022-10-30T17:23:37.448Z,101306.75
2022-10-30T17:30:39.804Z,101303.03
2022-10-30T17:37:41.358Z,101317.47
2022-10-30T17:44:42.921Z,101317.22
2022-10-30T17:51:44.469Z,101317.03
2022-10-30T17:58:46.020Z,101323.19
2022-10-30T18:05:47.582Z,101323.03
2022-10-30T18:12:49.162Z,101319.16
2022-10-30T18:19:51.166Z,101324.44
2022-10-30T18:26:54.781Z,101327.97
2022-10-30T18:33:56.355Z,101330.41
2022-10-30T18:40:57.981Z,101326.06
2022-10-30T18:48:02.774Z,101318.94
2022-10-30T18:55:25.760Z,101317.66
2022-10-30T19:02:27.578Z,101320.88
2022-10-30T19:09:29.264Z,101317.00
2022-10-30T19:16:30.904Z,101312.00
2022-10-30T19:23:32.514Z,101307.13
2022-10-30T19:30:34.150Z,101320.31
2022-10-30T19:37:35.821Z,101311.06
2022-10-30T19:44:37.440Z,101316.31
2022-10-30T19:51:39.085Z,101307.00
2022-10-30T19:58:40.681Z,101308.50
2022-10-30T20:05:45.339Z,101311.75
2022-10-30T20:12:46.989Z,101315.16
2022-10-30T20:19:48.696Z,101319.25
2022-10-30T20:26:50.267Z,101322.38
2022-10-30T20:33:51.841Z,101318.22
2022-10-30T20:40:53.454Z,101327.59
2022-10-30T20:47:55.064Z,101337.03
2022-10-30T20:54:56.667Z,101339.28
2022-10-30T21:01:58.399Z,101353.59
2022-10-30T21:09:00.123Z,101347.41
2022-10-30T21:16:02.966Z,101332.53
2022-10-30T21:23:05.418Z,101334.78
2022-10-30T21:30:07.701Z,101336.16
2022-10-30T21:37:09.282Z,101327.56
2022-10-30T21:44:11.416Z,101325.47
2022-10-30T21:51:23.351Z,101324.69
2022-10-30T21:58:24.934Z,101332.50
2022-10-30T22:05:26.539Z,101347.31
2022-10-30T22:12:28.136Z,101346.09
2022-10-30T22:19:29.702Z,101342.78
2022-10-30T22:26:31.420Z,101351.22
2022-10-30T22:33:33.211Z,101351.59
2022-10-30T22:40:34.756Z,101350.94
2022-10-30T22:47:36.328Z,101349.50
2022-10-30T22:54:37.901Z,101351.53
2022-10-30T23:01:39.810Z,101349.22
2022-10-30T23:08:41.566Z,101351.34
2022-10-30T23:15:43.120Z,101352.72
2022-10-30T23:22:44.659Z,101356.69
2022-10-30T23:29:47.454Z,101354.28
2022-10-30T23:36:49.007Z,101364.44
2022-10-30T23:43:54.176Z,101363.66
2022-10-30T23:50:55.758Z,101355.81
2022-10-30T23:57:57.656Z,101356.88
